createdAt,value
2023-01-10T00:00:53.889Z,51.93
2023-01-10T00:03:22.512Z,51.17
2023-01-10T00:05:52.549Z,50.77
2023-01-10T00:08:21.409Z,50.80
2023-01-10T00:10:50.321Z,51.93
2023-01-10T00:13:24.616Z,49.77
2023-01-10T00:15:53.930Z,51.90
2023-01-10T00:18:22.929Z,51.30
2023-01-10T00:20:52.936Z,55.00
2023-01-10T00:23:24.763Z,54.10
2023-01-10T00:25:53.312Z,52.37
2023-01-10T00:28:21.963Z,48.83
2023-01-10T00:30:59.073Z,48.50
2023-01-10T00:33:27.678Z,52.23
2023-01-10T00:35:57.667Z,52.80
2023-01-10T00:38:26.473Z,51.77
2023-01-10T00:40:55.186Z,55.37
2023-01-10T00:43:41.205Z,56.23
2023-01-10T00:46:09.967Z,51.63
2023-01-10T00:48:41.353Z,53.80
2023-01-10T00:51:11.321Z,51.90
2023-01-10T00:53:39.873Z,52.93
2023-01-10T00:56:08.940Z,53.27
2023-01-10T00:58:37.533Z,47.67
2023-01-10T01:01:06.379Z,52.70
2023-01-10T01:03:35.099Z,51.57
2023-01-10T01:06:06.442Z,54.60
2023-01-10T01:08:36.741Z,52.67
2023-01-10T01:11:05.409Z,51.60
2023-01-10T01:13:34.081Z,53.43
2023-01-10T01:16:02.745Z,48.20
2023-01-10T01:18:31.665Z,55.80
2023-01-10T01:21:03.672Z,51.77
2023-01-10T01:23:34.629Z,46.83
2023-01-10T01:26:06.403Z,45.67
2023-01-10T01:28:35.345Z,46.80
2023-01-10T01:31:10.300Z,47.77
2023-01-10T01:33:39.151Z,45.50
2023-01-10T01:36:11.172Z,50.33
2023-01-10T01:38:40.090Z,49.87
2023-01-10T01:41:30.443Z,49.37
2023-01-10T01:44:04.452Z,54.97
2023-01-10T01:46:34.551Z,56.53
2023-01-10T01:49:06.138Z,53.73
2023-01-10T01:51:36.071Z,49.47
2023-01-10T01:54:08.689Z,54.80
2023-01-10T01:56:44.192Z,53.20
2023-01-10T01:59:17.490Z,60.10
2023-01-10T02:01:49.275Z,57.00
2023-01-10T02:04:21.967Z,54.27
2023-01-10T02:06:53.636Z,56.13
2023-01-10T02:09:29.445Z,56.60
2023-01-10T02:11:59.409Z,54.07
2023-01-10T02:14:28.405Z,51.73
2023-01-10T02:16:56.987Z,53.80
2023-01-10T02:19:35.518Z,52.30
2023-01-10T02:22:55.174Z,53.97
2023-01-10T02:26:06.516Z,56.20
2023-01-10T02:29:10.942Z,56.80
2023-01-10T02:32:03.314Z,58.47
2023-01-10T02:34:39.563Z,53.70
2023-01-10T02:37:14.922Z,60.47
2023-01-10T02:39:52.545Z,56.47
2023-01-10T02:42:27.361Z,53.67
2023-01-10T02:45:02.059Z,55.63
2023-01-10T02:47:38.552Z,53.27
2023-01-10T02:50:31.801Z,56.27
2023-01-10T02:53:03.472Z,55.67
2023-01-10T02:55:43.493Z,56.23
2023-01-10T02:58:22.778Z,54.97
2023-01-10T03:00:59.177Z,55.17
2023-01-10T03:03:37.360Z,54.47
2023-01-10T03:06:20.099Z,54.57
2023-01-10T03:08:57.865Z,58.20
2023-01-10T03:11:44.824Z,57.23
2023-01-10T03:14:20.314Z,55.60
2023-01-10T03:16:54.063Z,58.13
2023-01-10T03:19:28.625Z,57.33
2023-01-10T03:22:00.948Z,60.37
2023-01-10T03:24:34.270Z,54.93
2023-01-10T03:27:09.085Z,55.33
2023-01-10T03:29:44.886Z,58.37
2023-01-10T03:32:17.268Z,60.83
2023-01-10T03:34:48.633Z,58.97
2023-01-10T03:37:25.783Z,63.93
2023-01-10T03:40:00.512Z,61.67
2023-01-10T03:42:57.975Z,57.00
2023-01-10T03:45:33.865Z,61.90
2023-01-10T03:48:06.808Z,59.00
2023-01-10T03:50:39.101Z,58.03
2023-01-10T03:53:07.974Z,59.33
2023-01-10T03:55:37.769Z,55.83
2023-01-10T03:58:07.570Z,59.87
2023-01-10T04:00:36.127Z,55.90
2023-01-10T04:03:04.844Z,56.73
2023-01-10T04:05:33.384Z,53.33
2023-01-10T04:08:04.840Z,58.60
2023-01-10T04:10:33.504Z,62.30
2023-01-10T04:13:02.800Z,58.90
2023-01-10T04:15:31.795Z,54.97
2023-01-10T04:18:00.392Z,54.43
2023-01-10T04:20:28.983Z,57.97
2023-01-10T04:22:58.687Z,57.20
2023-01-10T04:25:29.841Z,53.77
2023-01-10T04:27:59.279Z,52.50
2023-01-10T04:30:28.128Z,54.77
2023-01-10T04:32:56.800Z,59.67
2023-01-10T04:35:25.413Z,59.40
2023-01-10T04:37:53.971Z,57.33
2023-01-10T04:40:23.728Z,54.00
2023-01-10T04:42:53.925Z,56.53
2023-01-10T04:45:22.591Z,58.20
2023-01-10T04:47:52.341Z,54.90
2023-01-10T04:50:21.224Z,54.20
2023-01-10T04:52:49.852Z,55.60
2023-01-10T04:55:18.572Z,55.17
2023-01-10T04:57:47.653Z,53.80
2023-01-10T05:00:18.415Z,53.93
2023-01-10T05:02:47.236Z,59.10
2023-01-10T05:05:16.739Z,54.10
2023-01-10T05:07:48.233Z,49.08
2023-01-10T05:10:17.235Z,57.20
2023-01-10T05:12:46.748Z,51.17
2023-01-10T05:15:17.044Z,59.57
2023-01-10T05:17:45.688Z,55.73
2023-01-10T05:20:14.761Z,57.53
2023-01-10T05:22:43.459Z,55.17
2023-01-10T05:25:12.127Z,53.47
2023-01-10T05:27:43.975Z,57.87
2023-01-10T05:30:14.210Z,56.37
2023-01-10T05:32:44.738Z,56.08
2023-01-10T05:35:15.236Z,65.30
2023-01-10T05:37:43.975Z,58.50
2023-01-10T05:40:13.674Z,57.97
2023-01-10T05:42:43.230Z,56.93
2023-01-10T05:45:12.869Z,61.60
2023-01-10T05:47:42.180Z,56.58
2023-01-10T05:50:13.920Z,65.93
2023-01-10T05:52:44.286Z,58.23
2023-01-10T05:55:13.810Z,59.93
2023-01-10T05:57:42.418Z,59.40
2023-01-10T06:00:12.905Z,59.67
2023-01-10T06:02:41.737Z,56.33
2023-01-10T06:05:12.205Z,56.40
2023-01-10T06:07:43.795Z,60.03
2023-01-10T06:10:12.909Z,64.77
2023-01-10T06:12:41.930Z,60.43
2023-01-10T06:15:11.584Z,58.80
2023-01-10T06:17:40.169Z,60.00
2023-01-10T06:20:26.313Z,68.03
2023-01-10T06:22:55.834Z,56.70
2023-01-10T06:25:24.672Z,59.67
2023-01-10T06:27:53.587Z,58.30
2023-01-10T06:30:22.467Z,61.10
2023-01-10T06:32:51.284Z,60.70
2023-01-10T06:35:21.739Z,60.83
2023-01-10T06:37:50.512Z,64.70
2023-01-10T06:40:19.330Z,63.27
2023-01-10T06:42:48.285Z,62.53
2023-01-10T06:45:17.150Z,59.57
2023-01-10T06:47:46.009Z,61.87
2023-01-10T06:50:15.577Z,63.40
2023-01-10T06:52:45.606Z,60.60
2023-01-10T06:55:14.321Z,62.03
2023-01-10T06:57:42.946Z,63.07
2023-01-10T07:00:12.709Z,61.47
2023-01-10T07:02:41.602Z,60.47
2023-01-10T07:05:11.633Z,63.27
2023-01-10T07:07:40.576Z,64.07
2023-01-10T07:10:12.231Z,61.60
2023-01-10T07:12:40.871Z,61.27
2023-01-10T07:15:13.118Z,63.77
2023-01-10T07:17:41.865Z,62.07
2023-01-10T07:20:12.123Z,63.77
2023-01-10T07:22:40.710Z,66.53
2023-01-10T07:25:11.407Z,69.03
2023-01-10T07:27:43.459Z,63.33
2023-01-10T07:30:13.141Z,66.90
2023-01-10T07:32:41.701Z,69.57
2023-01-10T07:35:11.035Z,74.93
2023-01-10T07:37:39.626Z,72.07
2023-01-10T07:40:11.490Z,68.53
2023-01-10T07:42:43.750Z,67.97
2023-01-10T07:45:13.060Z,72.27
2023-01-10T07:47:41.818Z,68.33
2023-01-10T07:50:11.478Z,68.43
2023-01-10T07:52:40.120Z,65.20
2023-01-10T07:55:11.004Z,73.77
2023-01-10T07:57:39.503Z,67.00
2023-01-10T08:00:09.630Z,68.33
2023-01-10T08:02:38.343Z,71.47
2023-01-10T08:05:07.556Z,72.60
2023-01-10T08:07:36.164Z,71.60
2023-01-10T08:10:05.256Z,72.30
2023-01-10T08:12:35.608Z,78.40
2023-01-10T08:15:04.269Z,73.30
2023-01-10T08:17:35.463Z,69.50
2023-01-10T08:20:15.723Z,69.13
2023-01-10T08:22:44.388Z,75.90
2023-01-10T08:25:16.393Z,70.63
2023-01-10T08:27:46.513Z,71.33
2023-01-10T08:30:16.328Z,67.97
2023-01-10T08:32:45.296Z,65.67
2023-01-10T08:35:14.199Z,66.07
2023-01-10T08:37:42.792Z,63.60
2023-01-10T08:40:12.800Z,61.40
2023-01-10T08:42:41.458Z,61.27
2023-01-10T08:45:21.028Z,58.77
2023-01-10T08:47:49.622Z,60.17
2023-01-10T08:50:18.565Z,57.47
2023-01-10T08:52:47.208Z,71.37
2023-01-10T08:55:15.843Z,60.67
2023-01-10T08:57:44.734Z,57.63
2023-01-10T09:00:15.980Z,58.93
2023-01-10T09:02:45.377Z,58.30
2023-01-10T09:05:26.277Z,56.40
2023-01-10T09:08:00.319Z,57.40
2023-01-10T09:10:29.586Z,57.60
2023-01-10T09:13:01.682Z,54.63
2023-01-10T09:15:33.858Z,56.03
2023-01-10T09:18:04.978Z,56.67
2023-01-10T09:20:35.219Z,52.80
2023-01-10T09:23:08.622Z,59.97
2023-01-10T09:25:39.091Z,64.83
2023-01-10T09:28:08.506Z,57.10
2023-01-10T09:30:39.571Z,59.80
2023-01-10T09:33:08.864Z,58.67
2023-01-10T09:35:39.295Z,55.40
2023-01-10T09:38:36.614Z,57.13
2023-01-10T09:41:21.712Z,57.83
2023-01-10T09:44:02.814Z,51.60
2023-01-10T09:46:44.240Z,77.97
2023-01-10T09:49:24.333Z,55.70
2023-01-10T09:51:56.282Z,59.30
2023-01-10T09:54:29.803Z,59.17
2023-01-10T09:57:01.159Z,55.67
2023-01-10T09:59:39.287Z,58.03
2023-01-10T10:02:26.923Z,53.43
2023-01-10T10:05:13.321Z,51.97
2023-01-10T10:07:42.709Z,50.53
2023-01-10T10:10:17.913Z,56.70
2023-01-10T10:12:56.813Z,53.13
2023-01-10T10:15:33.846Z,57.80
2023-01-10T10:18:16.856Z,52.57
2023-01-10T10:20:55.949Z,54.50
2023-01-10T10:23:55.566Z,53.40
2023-01-10T10:26:30.744Z,55.70
2023-01-10T10:29:24.080Z,52.83
2023-01-10T10:32:17.341Z,52.67
2023-01-10T10:34:51.159Z,51.70
2023-01-10T10:37:23.242Z,54.50
2023-01-10T10:39:55.693Z,55.77
2023-01-10T10:42:29.630Z,56.37
2023-01-10T10:45:03.324Z,57.30
2023-01-10T10:47:35.694Z,52.33
2023-01-10T10:50:18.190Z,51.30
2023-01-10T10:52:47.949Z,49.80
2023-01-10T10:55:19.107Z,56.53
2023-01-10T10:57:59.959Z,59.97
2023-01-10T11:00:30.501Z,59.00
2023-01-10T11:03:05.168Z,55.73
2023-01-10T11:05:41.121Z,59.00
2023-01-10T11:08:13.028Z,75.63
2023-01-10T11:10:42.436Z,65.97
2023-01-10T11:13:21.734Z,61.73
2023-01-10T11:15:51.920Z,74.57
2023-01-10T11:18:22.772Z,68.20
2023-01-10T11:20:58.329Z,55.87
2023-01-10T11:23:37.599Z,58.17
2023-01-10T11:26:08.232Z,63.33
2023-01-10T11:28:39.397Z,60.50
2023-01-10T11:31:08.824Z,62.07
2023-01-10T11:33:41.161Z,58.70
2023-01-10T11:36:13.315Z,55.33
2023-01-10T11:38:42.033Z,51.27
2023-01-10T11:41:27.607Z,67.37
2023-01-10T11:44:22.533Z,84.40
2023-01-10T11:46:53.914Z,58.07
2023-01-10T11:49:29.059Z,65.63
2023-01-10T11:52:04.832Z,55.03
2023-01-10T11:54:34.959Z,80.50
2023-01-10T11:57:08.824Z,50.13
2023-01-10T11:59:39.369Z,50.47
2023-01-10T12:02:19.063Z,63.93
2023-01-10T12:04:52.298Z,49.53
2023-01-10T12:07:22.776Z,52.80
2023-01-10T12:09:58.001Z,57.10
2023-01-10T12:12:28.304Z,51.90
2023-01-10T12:14:58.914Z,50.57
2023-01-10T12:17:30.161Z,45.83
2023-01-10T12:20:01.702Z,42.20
2023-01-10T12:22:35.488Z,48.53
2023-01-10T12:25:07.974Z,41.90
2023-01-10T12:27:36.653Z,50.83
2023-01-10T12:30:09.061Z,49.07
2023-01-10T12:32:43.424Z,43.33
2023-01-10T12:35:18.717Z,48.17
2023-01-10T12:37:51.795Z,48.13
2023-01-10T12:40:27.141Z,45.67
2023-01-10T12:43:18.703Z,47.13
2023-01-10T12:45:52.524Z,46.10
2023-01-10T12:48:28.388Z,47.13
2023-01-10T12:51:01.124Z,43.57
2023-01-10T12:53:39.267Z,44.57
2023-01-10T12:56:15.199Z,43.47
2023-01-10T12:58:47.330Z,42.97
2023-01-10T13:01:21.749Z,42.40
2023-01-10T13:03:56.121Z,44.67
2023-01-10T13:06:31.907Z,44.20
2023-01-10T13:09:20.921Z,44.93
2023-01-10T13:11:56.393Z,54.57
2023-01-10T13:14:30.769Z,57.37
2023-01-10T13:17:09.208Z,48.33
2023-01-10T13:19:37.856Z,43.00
2023-01-10T13:22:24.196Z,41.57
2023-01-10T13:25:05.063Z,44.67
2023-01-10T13:27:36.048Z,48.30
2023-01-10T13:30:06.636Z,42.67
2023-01-10T13:32:38.859Z,41.60
2023-01-10T13:35:16.481Z,45.47
2023-01-10T13:37:52.065Z,41.77
2023-01-10T13:40:27.586Z,45.50
2023-01-10T13:43:42.392Z,44.10
2023-01-10T13:46:50.311Z,53.43
2023-01-10T13:49:48.801Z,49.07
2023-01-10T13:52:32.344Z,43.97
2023-01-10T13:55:04.059Z,46.50
2023-01-10T13:57:54.562Z,46.40
2023-01-10T14:00:44.238Z,41.53
2023-01-10T14:03:50.271Z,44.07
2023-01-10T14:06:41.396Z,48.40
2023-01-10T14:09:44.813Z,49.07
2023-01-10T14:12:26.710Z,56.27
2023-01-10T14:15:00.678Z,46.53
2023-01-10T14:17:31.573Z,41.20
2023-01-10T14:20:04.754Z,45.97
2023-01-10T14:22:36.373Z,49.20
2023-01-10T14:25:07.553Z,51.07
2023-01-10T14:27:48.810Z,49.67
2023-01-10T14:30:24.517Z,43.30
2023-01-10T14:32:58.012Z,47.40
2023-01-10T14:35:36.059Z,42.23
2023-01-10T14:38:06.719Z,42.57
2023-01-10T14:41:03.339Z,43.77
2023-01-10T14:43:47.395Z,48.10
2023-01-10T14:51:07.202Z,53.30
2023-01-10T14:54:16.212Z,50.20
2023-01-10T14:56:51.769Z,48.30
2023-01-10T14:59:26.397Z,50.23
2023-01-10T15:02:13.846Z,46.17
2023-01-10T15:04:54.444Z,47.87
2023-01-10T15:07:27.989Z,48.73
2023-01-10T15:09:58.621Z,46.63
2023-01-10T15:12:35.280Z,48.47
2023-01-10T15:15:08.457Z,45.00
2023-01-10T15:17:44.441Z,46.20
2023-01-10T15:20:17.108Z,45.27
2023-01-10T15:22:50.264Z,52.03
2023-01-10T15:25:32.020Z,49.50
2023-01-10T15:28:03.449Z,50.03
2023-01-10T15:30:40.908Z,48.27
2023-01-10T15:33:16.932Z,51.83
2023-01-10T15:35:48.982Z,44.53
2023-01-10T15:38:22.678Z,49.47
2023-01-10T15:41:06.369Z,48.37
2023-01-10T15:43:37.611Z,52.07
2023-01-10T15:46:07.966Z,48.23
2023-01-10T15:48:38.243Z,50.57
2023-01-10T15:51:21.828Z,48.90
2023-01-10T15:53:57.936Z,47.10
2023-01-10T15:56:30.287Z,48.63
2023-01-10T15:59:01.463Z,46.40
2023-01-10T16:01:30.671Z,48.03
2023-01-10T16:04:02.244Z,42.30
2023-01-10T16:06:33.607Z,42.40
2023-01-10T16:09:06.113Z,40.47
2023-01-10T16:11:59.205Z,46.10
2023-01-10T16:14:33.745Z,47.00
2023-01-10T16:17:02.472Z,43.23
2023-01-10T16:19:31.377Z,45.53
2023-01-10T16:22:00.943Z,43.93
2023-01-10T16:24:31.490Z,41.80
2023-01-10T16:27:03.333Z,42.33
2023-01-10T16:29:35.169Z,46.73
2023-01-10T16:32:03.966Z,44.10
2023-01-10T16:34:34.529Z,48.37
2023-01-10T16:37:05.738Z,49.10
2023-01-10T16:39:35.144Z,57.67
2023-01-10T16:42:20.989Z,50.07
2023-01-10T16:44:51.182Z,58.43
2023-01-10T16:47:22.123Z,57.50
2023-01-10T16:49:53.934Z,56.63
2023-01-10T16:52:22.701Z,59.13
2023-01-10T16:54:51.245Z,53.20
2023-01-10T16:57:24.879Z,58.47
2023-01-10T16:59:54.978Z,56.43
2023-01-10T17:02:25.048Z,52.80
2023-01-10T17:04:54.657Z,53.00
2023-01-10T17:07:23.222Z,54.70
2023-01-10T17:09:51.889Z,58.17
2023-01-10T17:12:21.109Z,54.67
2023-01-10T17:14:49.872Z,49.33
2023-01-10T17:17:19.911Z,51.87
2023-01-10T17:19:48.615Z,55.80
2023-01-10T17:22:17.595Z,47.05
2023-01-10T17:24:46.362Z,52.17
2023-01-10T17:27:15.115Z,52.07
2023-01-10T17:29:44.155Z,54.10
2023-01-10T17:32:13.048Z,54.33
2023-01-10T17:34:43.126Z,55.37
2023-01-10T17:37:11.895Z,61.10
2023-01-10T17:39:40.691Z,54.60
2023-01-10T17:42:09.575Z,55.27
2023-01-10T17:44:38.110Z,52.93
2023-01-10T17:47:06.790Z,55.97
2023-01-10T17:49:36.506Z,53.47
2023-01-10T17:52:06.651Z,58.47
2023-01-10T17:54:36.558Z,56.97
2023-01-10T17:57:05.578Z,56.10
2023-01-10T17:59:34.343Z,56.17
2023-01-10T18:02:03.223Z,59.20
2023-01-10T18:04:32.093Z,58.13
2023-01-10T18:07:00.759Z,56.80
2023-01-10T18:09:30.909Z,60.47
2023-01-10T18:11:59.442Z,54.87
2023-01-10T18:14:40.166Z,59.07
2023-01-10T18:17:11.576Z,55.33
2023-01-10T18:19:40.658Z,58.63
2023-01-10T18:22:23.049Z,57.63
2023-01-10T18:24:54.519Z,59.90
2023-01-10T18:27:23.613Z,57.20
2023-01-10T18:29:52.720Z,55.77
2023-01-10T18:32:23.844Z,57.37
2023-01-10T18:34:52.797Z,55.77
2023-01-10T18:37:21.748Z,60.70
2023-01-10T18:39:50.652Z,58.33
2023-01-10T18:42:20.814Z,60.10
2023-01-10T18:44:49.401Z,60.93
2023-01-10T18:47:17.955Z,64.30
2023-01-10T18:49:47.928Z,62.47
2023-01-10T18:52:16.931Z,69.90
2023-01-10T18:54:55.378Z,63.77
2023-01-10T18:57:25.783Z,69.60
2023-01-10T18:59:54.413Z,92.47
2023-01-10T19:02:23.095Z,77.13
2023-01-10T19:04:51.804Z,76.20
2023-01-10T19:07:20.466Z,71.63
2023-01-10T19:09:49.023Z,74.93
2023-01-10T19:12:17.954Z,69.13
2023-01-10T19:14:47.945Z,81.83
2023-01-10T19:17:18.422Z,73.90
2023-01-10T19:19:46.969Z,67.57
2023-01-10T19:22:15.549Z,65.37
2023-01-10T19:24:44.671Z,63.60
2023-01-10T19:27:13.253Z,62.53
2023-01-10T19:29:42.674Z,58.40
2023-01-10T19:32:12.813Z,62.77
2023-01-10T19:34:41.432Z,61.73
2023-01-10T19:37:10.408Z,63.67
2023-01-10T19:39:39.253Z,61.37
2023-01-10T19:42:07.808Z,72.00
2023-01-10T19:44:36.992Z,65.10
2023-01-10T19:47:06.201Z,69.50
2023-01-10T19:49:37.383Z,60.40
2023-01-10T19:52:06.468Z,61.83
2023-01-10T19:54:35.455Z,63.17
2023-01-10T19:57:04.276Z,67.23
2023-01-10T19:59:33.411Z,64.77
2023-01-10T20:02:02.382Z,64.40
2023-01-10T20:04:30.981Z,59.83
2023-01-10T20:07:01.163Z,61.57
2023-01-10T20:09:29.863Z,66.40
2023-01-10T20:11:58.526Z,62.83
2023-01-10T20:14:27.909Z,64.40
2023-01-10T20:16:56.459Z,63.57
2023-01-10T20:19:25.245Z,65.07
2023-01-10T20:21:53.825Z,64.83
2023-01-10T20:24:23.893Z,57.03
2023-01-10T20:26:53.417Z,65.43
2023-01-10T20:29:22.304Z,66.13
2023-01-10T20:31:55.820Z,68.93
2023-01-10T20:34:26.771Z,65.87
2023-01-10T20:36:57.572Z,63.10
2023-01-10T20:39:27.972Z,56.73
2023-01-10T20:41:56.598Z,60.73
2023-01-10T20:44:26.480Z,62.57
2023-01-10T20:46:56.472Z,61.50
2023-01-10T20:49:25.116Z,59.40
2023-01-10T20:51:54.559Z,63.30
2023-01-10T20:54:23.309Z,68.80
2023-01-10T20:56:53.499Z,65.70
2023-01-10T20:59:23.509Z,62.73
2023-01-10T21:01:55.006Z,48.78
2023-01-10T21:04:23.671Z,54.03
2023-01-10T21:06:52.564Z,57.10
2023-01-10T21:09:21.300Z,64.97
2023-01-10T21:12:10.587Z,62.30
2023-01-10T21:14:47.913Z,66.43
2023-01-10T21:17:16.608Z,68.00
2023-01-10T21:19:45.536Z,99.80
2023-01-10T21:22:14.119Z,103.60
2023-01-10T21:24:43.224Z,110.63
2023-01-10T21:27:13.153Z,96.23
2023-01-10T21:29:42.239Z,89.67
2023-01-10T21:32:13.336Z,79.27
2023-01-10T21:34:41.901Z,73.87
2023-01-10T21:37:10.548Z,74.97
2023-01-10T21:39:39.071Z,73.87
2023-01-10T21:42:25.316Z,75.97
2023-01-10T21:44:55.347Z,71.10
2023-01-10T21:47:24.607Z,75.27
2023-01-10T21:49:53.349Z,75.07
2023-01-10T21:52:21.974Z,73.70
2023-01-10T21:54:50.633Z,71.17
2023-01-10T21:57:22.485Z,75.40
2023-01-10T21:59:51.313Z,68.47
2023-01-10T22:02:22.923Z,75.93
2023-01-10T22:04:55.259Z,80.30
2023-01-10T22:07:25.325Z,67.97
2023-01-10T22:09:53.946Z,71.93
2023-01-10T22:12:24.499Z,70.93
2023-01-10T22:14:55.420Z,70.00
2023-01-10T22:17:25.779Z,69.47
2023-01-10T22:19:54.436Z,73.67
2023-01-10T22:22:23.053Z,74.63
2023-01-10T22:24:51.904Z,74.73
2023-01-10T22:27:20.928Z,69.43
2023-01-10T22:29:49.555Z,77.13
2023-01-10T22:32:18.170Z,80.10
2023-01-10T22:34:48.753Z,76.80
2023-01-10T22:37:17.940Z,78.50
2023-01-10T22:39:48.424Z,77.07
2023-01-10T22:42:17.239Z,76.30
2023-01-10T22:44:47.995Z,68.50
2023-01-10T22:47:16.778Z,65.57
2023-01-10T22:49:45.357Z,65.87
2023-01-10T22:52:15.632Z,62.17
2023-01-10T22:54:44.276Z,60.13
2023-01-10T22:57:14.363Z,62.57
2023-01-10T22:59:42.932Z,63.23
2023-01-10T23:02:11.454Z,66.43
2023-01-10T23:04:40.066Z,64.63
2023-01-10T23:07:08.559Z,70.97
2023-01-10T23:09:38.489Z,64.70
2023-01-10T23:12:08.501Z,65.50
2023-01-10T23:14:37.196Z,65.53
2023-01-10T23:17:05.715Z,63.73
2023-01-10T23:19:34.209Z,61.87
2023-01-10T23:22:02.716Z,57.90
2023-01-10T23:24:31.320Z,61.47
2023-01-10T23:27:01.270Z,58.87
2023-01-10T23:29:29.806Z,56.93
2023-01-10T23:31:58.373Z,62.50
2023-01-10T23:34:27.203Z,53.53
2023-01-10T23:36:55.737Z,55.57
2023-01-10T23:39:24.251Z,53.27
2023-01-10T23:41:52.831Z,57.17
2023-01-10T23:44:22.977Z,57.13
2023-01-10T23:46:51.492Z,53.10
2023-01-10T23:49:20.073Z,60.37
2023-01-10T23:51:48.735Z,64.13
2023-01-10T23:54:18.247Z,61.57
2023-01-10T23:56:46.888Z,58.40
2023-01-10T23:59:15.376Z,63.13
